sensor_id;sensor_type;location;lat;lon;timestamp;pressure;altitude;pressure_sealevel;temperature;humidity
27840;BME280;15207;42.182;24.308;2024-03-02T00:00:18;98859.03;;;8.96;100.00
27840;BME280;15207;42.182;24.308;2024-03-02T00:02:47;98855.03;;;9.02;100.00
27840;BME280;15207;42.182;24.308;2024-03-02T00:05:15;98851.59;;;9.11;100.00
27840;BME280;15207;42.182;24.308;2024-03-02T00:07:45;98849.94;;;8.98;100.00
27840;BME280;15207;42.182;24.308;2024-03-02T00:10:16;98853.06;;;9.04;100.00
27840;BME280;15207;42.182;24.308;2024-03-02T00:12:47;98854.41;;;8.98;100.00
27840;BME280;15207;42.182;24.308;2024-03-02T00:18:13;98850.38;;;9.15;100.00
27840;BME280;15207;42.182;24.308;2024-03-02T00:20:40;98848.19;;;9.20;100.00
27840;BME280;15207;42.182;24.308;2024-03-02T00:23:08;98849.16;;;9.31;100.00
27840;BME280;15207;42.182;24.308;2024-03-02T00:25:41;98855.63;;;9.05;100.00
27840;BME280;15207;42.182;24.308;2024-03-02T00:28:29;98842.75;;;9.10;100.00
27840;BME280;15207;42.182;24.308;2024-03-02T00:33:48;98844.47;;;9.00;100.00
27840;BME280;15207;42.182;24.308;2024-03-02T00:36:15;98837.44;;;8.76;100.00
27840;BME280;15207;42.182;24.308;2024-03-02T00:38:52;98832.44;;;8.60;100.00
27840;BME280;15207;42.182;24.308;2024-03-02T00:41:27;98837.41;;;8.53;100.00
27840;BME280;15207;42.182;24.308;2024-03-02T00:43:59;98823.72;;;8.58;100.00
27840;BME280;15207;42.182;24.308;2024-03-02T00:46:26;98820.66;;;8.63;100.00
27840;BME280;15207;42.182;24.308;2024-03-02T00:48:59;98803.06;;;8.37;100.00
27840;BME280;15207;42.182;24.308;2024-03-02T00:51:27;98808.72;;;8.32;100.00
27840;BME280;15207;42.182;24.308;2024-03-02T00:53:54;98813.66;;;8.14;100.00
27840;BME280;15207;42.182;24.308;2024-03-02T00:56:25;98806.91;;;8.22;100.00
27840;BME280;15207;42.182;24.308;2024-03-02T00:58:51;98790.53;;;8.15;100.00
27840;BME280;15207;42.182;24.308;2024-03-02T01:01:17;98790.03;;;8.21;100.00
27840;BME280;15207;42.182;24.308;2024-03-02T01:03:43;98787.63;;;8.29;100.00
27840;BME280;15207;42.182;24.308;2024-03-02T01:06:08;98778.88;;;8.16;100.00
27840;BME280;15207;42.182;24.308;2024-03-02T01:08:38;98781.16;;;8.09;100.00
27840;BME280;15207;42.182;24.308;2024-03-02T01:11:04;98764.63;;;7.81;100.00
27840;BME280;15207;42.182;24.308;2024-03-02T01:13:30;98759.16;;;7.83;100.00
27840;BME280;15207;42.182;24.308;2024-03-02T01:15:56;98756.41;;;7.96;100.00
27840;BME280;15207;42.182;24.308;2024-03-02T01:18:21;98766.22;;;7.84;100.00
27840;BME280;15207;42.182;24.308;2024-03-02T01:20:50;98762.28;;;8.12;100.00
27840;BME280;15207;42.182;24.308;2024-03-02T01:23:21;98750.25;;;8.18;100.00
27840;BME280;15207;42.182;24.308;2024-03-02T01:25:47;98755.59;;;8.06;100.00
27840;BME280;15207;42.182;24.308;2024-03-02T01:28:13;98754.47;;;7.98;100.00
27840;BME280;15207;42.182;24.308;2024-03-02T01:30:39;98760.75;;;7.85;100.00
27840;BME280;15207;42.182;24.308;2024-03-02T01:33:04;98761.66;;;8.09;100.00
27840;BME280;15207;42.182;24.308;2024-03-02T01:35:31;98760.19;;;8.04;100.00
27840;BME280;15207;42.182;24.308;2024-03-02T01:37:57;98748.16;;;7.87;100.00
27840;BME280;15207;42.182;24.308;2024-03-02T01:40:22;98749.16;;;7.98;100.00
27840;BME280;15207;42.182;24.308;2024-03-02T01:42:51;98749.84;;;7.88;100.00
27840;BME280;15207;42.182;24.308;2024-03-02T01:45:17;98753.63;;;7.97;100.00
27840;BME280;15207;42.182;24.308;2024-03-02T01:47:42;98754.47;;;7.98;100.00
27840;BME280;15207;42.182;24.308;2024-03-02T01:50:08;98750.84;;;7.99;100.00
27840;BME280;15207;42.182;24.308;2024-03-02T01:52:35;98743.00;;;8.09;100.00
27840;BME280;15207;42.182;24.308;2024-03-02T01:55:01;98743.72;;;8.11;100.00
27840;BME280;15207;42.182;24.308;2024-03-02T01:57:26;98752.84;;;8.42;100.00
27840;BME280;15207;42.182;24.308;2024-03-02T01:59:51;98756.81;;;8.37;100.00
27840;BME280;15207;42.182;24.308;2024-03-02T02:02:18;98754.38;;;8.11;100.00
27840;BME280;15207;42.182;24.308;2024-03-02T02:04:43;98763.63;;;8.29;100.00
27840;BME280;15207;42.182;24.308;2024-03-02T02:07:09;98749.91;;;8.23;100.00
27840;BME280;15207;42.182;24.308;2024-03-02T02:09:35;98756.13;;;8.57;100.00
27840;BME280;15207;42.182;24.308;2024-03-02T02:12:00;98767.75;;;8.33;100.00
27840;BME280;15207;42.182;24.308;2024-03-02T02:14:26;98762.00;;;8.04;100.00
27840;BME280;15207;42.182;24.308;2024-03-02T02:16:51;98755.25;;;8.11;100.00
27840;BME280;15207;42.182;24.308;2024-03-02T02:19:17;98753.41;;;8.12;100.00
27840;BME280;15207;42.182;24.308;2024-03-02T02:21:43;98758.84;;;8.10;100.00
27840;BME280;15207;42.182;24.308;2024-03-02T02:24:08;98756.34;;;8.09;100.00
27840;BME280;15207;42.182;24.308;2024-03-02T02:26:34;98756.19;;;7.99;100.00
27840;BME280;15207;42.182;24.308;2024-03-02T02:28:59;98748.88;;;7.78;100.00
27840;BME280;15207;42.182;24.308;2024-03-02T02:31:25;98754.66;;;7.72;100.00
27840;BME280;15207;42.182;24.308;2024-03-02T02:33:50;98750.06;;;7.74;100.00
27840;BME280;15207;42.182;24.308;2024-03-02T02:36:15;98750.66;;;7.66;100.00
27840;BME280;15207;42.182;24.308;2024-03-02T02:38:44;98746.66;;;7.72;100.00
27840;BME280;15207;42.182;24.308;2024-03-02T02:41:12;98737.88;;;7.94;100.00
27840;BME280;15207;42.182;24.308;2024-03-02T02:43:38;98744.03;;;7.83;100.00
27840;BME280;15207;42.182;24.308;2024-03-02T02:46:05;98744.13;;;7.81;100.00
27840;BME280;15207;42.182;24.308;2024-03-02T02:48:30;98738.31;;;7.88;100.00
27840;BME280;15207;42.182;24.308;2024-03-02T02:50:55;98747.34;;;7.98;100.00
27840;BME280;15207;42.182;24.308;2024-03-02T02:53:21;98744.31;;;8.03;100.00
27840;BME280;15207;42.182;24.308;2024-03-02T02:55:46;98759.00;;;8.09;100.00
27840;BME280;15207;42.182;24.308;2024-03-02T02:58:12;98753.28;;;8.13;100.00
27840;BME280;15207;42.182;24.308;2024-03-02T03:00:38;98755.34;;;8.10;100.00
27840;BME280;15207;42.182;24.308;2024-03-02T03:03:03;98758.50;;;8.03;100.00
27840;BME280;15207;42.182;24.308;2024-03-02T03:05:29;98754.81;;;7.93;100.00
27840;BME280;15207;42.182;24.308;2024-03-02T03:07:54;98751.94;;;7.96;100.00
27840;BME280;15207;42.182;24.308;2024-03-02T03:10:20;98746.97;;;8.03;100.00
27840;BME280;15207;42.182;24.308;2024-03-02T03:12:47;98745.50;;;7.99;100.00
27840;BME280;15207;42.182;24.308;2024-03-02T03:15:12;98747.88;;;7.79;100.00
27840;BME280;15207;42.182;24.308;2024-03-02T03:17:38;98746.19;;;7.78;100.00
27840;BME280;15207;42.182;24.308;2024-03-02T03:20:04;98738.81;;;7.81;100.00
27840;BME280;15207;42.182;24.308;2024-03-02T03:22:31;98740.75;;;7.79;100.00
27840;BME280;15207;42.182;24.308;2024-03-02T03:24:57;98742.34;;;7.93;100.00
27840;BME280;15207;42.182;24.308;2024-03-02T03:27:22;98732.28;;;7.97;100.00
27840;BME280;15207;42.182;24.308;2024-03-02T03:29:48;98739.78;;;7.80;100.00
27840;BME280;15207;42.182;24.308;2024-03-02T03:32:13;98738.44;;;7.75;100.00
27840;BME280;15207;42.182;24.308;2024-03-02T03:34:39;98737.78;;;7.60;100.00
27840;BME280;15207;42.182;24.308;2024-03-02T03:37:04;98740.94;;;7.53;100.00
27840;BME280;15207;42.182;24.308;2024-03-02T03:39:30;98730.50;;;7.62;100.00
27840;BME280;15207;42.182;24.308;2024-03-02T03:41:55;98729.91;;;7.58;100.00
27840;BME280;15207;42.182;24.308;2024-03-02T03:44:21;98728.72;;;7.74;100.00
27840;BME280;15207;42.182;24.308;2024-03-02T03:46:46;98732.09;;;7.64;100.00
27840;BME280;15207;42.182;24.308;2024-03-02T03:49:11;98736.53;;;7.52;100.00
27840;BME280;15207;42.182;24.308;2024-03-02T03:51:37;98725.94;;;7.64;100.00
27840;BME280;15207;42.182;24.308;2024-03-02T03:54:02;98724.94;;;7.53;100.00
27840;BME280;15207;42.182;24.308;2024-03-02T03:56:28;98728.88;;;7.36;100.00
27840;BME280;15207;42.182;24.308;2024-03-02T03:58:53;98713.97;;;7.34;100.00
27840;BME280;15207;42.182;24.308;2024-03-02T04:01:18;98719.13;;;7.24;100.00
27840;BME280;15207;42.182;24.308;2024-03-02T04:03:44;98717.50;;;7.10;100.00
27840;BME280;15207;42.182;24.308;2024-03-02T04:06:10;98703.19;;;7.11;100.00
27840;BME280;15207;42.182;24.308;2024-03-02T04:08:35;98707.69;;;7.10;100.00
27840;BME280;15207;42.182;24.308;2024-03-02T04:11:01;98694.53;;;7.20;100.00
27840;BME280;15207;42.182;24.308;2024-03-02T04:13:28;98694.19;;;7.25;100.00
27840;BME280;15207;42.182;24.308;2024-03-02T04:15:53;98681.78;;;7.12;100.00
27840;BME280;15207;42.182;24.308;2024-03-02T04:18:19;98702.13;;;7.13;100.00
27840;BME280;15207;42.182;24.308;2024-03-02T04:20:44;98689.88;;;7.11;100.00
27840;BME280;15207;42.182;24.308;2024-03-02T04:23:09;98688.66;;;7.04;100.00
27840;BME280;15207;42.182;24.308;2024-03-02T04:25:35;98691.47;;;7.13;100.00
27840;BME280;15207;42.182;24.308;2024-03-02T04:28:01;98686.03;;;7.15;100.00
27840;BME280;15207;42.182;24.308;2024-03-02T04:30:26;98685.53;;;7.10;100.00
27840;BME280;15207;42.182;24.308;2024-03-02T04:32:52;98692.66;;;7.09;100.00
27840;BME280;15207;42.182;24.308;2024-03-02T04:35:17;98686.44;;;7.22;100.00
27840;BME280;15207;42.182;24.308;2024-03-02T04:37:42;98691.66;;;7.23;100.00
27840;BME280;15207;42.182;24.308;2024-03-02T04:40:09;98690.06;;;7.21;100.00
27840;BME280;15207;42.182;24.308;2024-03-02T04:42:35;98695.25;;;7.22;100.00
27840;BME280;15207;42.182;24.308;2024-03-02T04:45:01;98709.78;;;7.18;100.00
27840;BME280;15207;42.182;24.308;2024-03-02T04:47:26;98712.16;;;7.10;100.00
27840;BME280;15207;42.182;24.308;2024-03-02T04:49:52;98703.78;;;7.03;100.00
27840;BME280;15207;42.182;24.308;2024-03-02T04:52:17;98707.72;;;6.97;100.00
27840;BME280;15207;42.182;24.308;2024-03-02T04:54:43;98708.88;;;7.06;100.00
27840;BME280;15207;42.182;24.308;2024-03-02T04:57:27;98711.88;;;7.01;100.00
27840;BME280;15207;42.182;24.308;2024-03-02T04:59:53;98707.63;;;6.99;100.00
27840;BME280;15207;42.182;24.308;2024-03-02T05:02:18;98705.00;;;6.86;100.00
27840;BME280;15207;42.182;24.308;2024-03-02T05:04:43;98704.00;;;7.00;100.00
27840;BME280;15207;42.182;24.308;2024-03-02T05:07:09;98702.59;;;7.07;100.00
27840;BME280;15207;42.182;24.308;2024-03-02T05:09:34;98702.34;;;6.86;100.00
27840;BME280;15207;42.182;24.308;2024-03-02T05:12:00;98701.97;;;7.04;100.00
27840;BME280;15207;42.182;24.308;2024-03-02T05:14:48;98703.16;;;6.99;100.00
27840;BME280;15207;42.182;24.308;2024-03-02T05:17:14;98708.31;;;7.14;100.00
27840;BME280;15207;42.182;24.308;2024-03-02T05:19:39;98707.22;;;7.17;100.00
27840;BME280;15207;42.182;24.308;2024-03-02T05:22:04;98706.56;;;7.26;100.00
27840;BME280;15207;42.182;24.308;2024-03-02T05:24:30;98708.00;;;7.30;100.00
27840;BME280;15207;42.182;24.308;2024-03-02T05:26:56;98718.78;;;7.28;100.00
27840;BME280;15207;42.182;24.308;2024-03-02T05:29:21;98723.72;;;7.22;100.00
27840;BME280;15207;42.182;24.308;2024-03-02T05:31:47;98723.25;;;7.28;100.00
27840;BME280;15207;42.182;24.308;2024-03-02T05:34:13;98723.25;;;7.28;100.00
27840;BME280;15207;42.182;24.308;2024-03-02T05:36:38;98718.72;;;7.41;100.00
27840;BME280;15207;42.182;24.308;2024-03-02T05:39:04;98731.94;;;7.43;100.00
27840;BME280;15207;42.182;24.308;2024-03-02T05:41:34;98739.00;;;7.67;100.00
27840;BME280;15207;42.182;24.308;2024-03-02T05:43:59;98743.25;;;7.70;100.00
27840;BME280;15207;42.182;24.308;2024-03-02T05:46:25;98748.84;;;7.66;100.00
27840;BME280;15207;42.182;24.308;2024-03-02T05:48:50;98757.56;;;7.68;100.00
27840;BME280;15207;42.182;24.308;2024-03-02T05:51:16;98761.31;;;7.66;100.00
27840;BME280;15207;42.182;24.308;2024-03-02T05:53:41;98767.53;;;7.78;100.00
27840;BME280;15207;42.182;24.308;2024-03-02T05:56:07;98770.69;;;7.83;100.00
27840;BME280;15207;42.182;24.308;2024-03-02T05:58:33;98781.75;;;7.90;100.00
27840;BME280;15207;42.182;24.308;2024-03-02T06:01:17;98783.53;;;7.89;100.00
27840;BME280;15207;42.182;24.308;2024-03-02T06:03:43;98787.75;;;7.69;100.00
27840;BME280;15207;42.182;24.308;2024-03-02T06:06:08;98786.28;;;7.76;100.00
27840;BME280;15207;42.182;24.308;2024-03-02T06:08:34;98789.91;;;7.64;100.00
27840;BME280;15207;42.182;24.308;2024-03-02T06:11:00;98789.44;;;7.70;100.00
27840;BME280;15207;42.182;24.308;2024-03-02T06:13:25;98785.22;;;7.79;100.00
27840;BME280;15207;42.182;24.308;2024-03-02T06:15:52;98786.41;;;7.75;100.00
27840;BME280;15207;42.182;24.308;2024-03-02T06:18:17;98791.88;;;7.73;100.00
27840;BME280;15207;42.182;24.308;2024-03-02T06:20:43;98794.09;;;7.55;100.00
27840;BME280;15207;42.182;24.308;2024-03-02T06:23:08;98785.28;;;7.66;100.00
27840;BME280;15207;42.182;24.308;2024-03-02T06:25:33;98785.38;;;7.89;100.00
27840;BME280;15207;42.182;24.308;2024-03-02T06:27:59;98790.53;;;7.79;100.00
27840;BME280;15207;42.182;24.308;2024-03-02T06:30:24;98783.53;;;7.89;100.00
27840;BME280;15207;42.182;24.308;2024-03-02T06:32:50;98789.81;;;7.77;100.00
27840;BME280;15207;42.182;24.308;2024-03-02T06:35:15;98794.47;;;7.98;100.00
27840;BME280;15207;42.182;24.308;2024-03-02T06:37:40;98803.53;;;7.84;100.00
27840;BME280;15207;42.182;24.308;2024-03-02T06:40:07;98799.91;;;7.85;100.00
27840;BME280;15207;42.182;24.308;2024-03-02T06:42:35;98807.31;;;7.92;100.00
27840;BME280;15207;42.182;24.308;2024-03-02T06:45:02;98805.84;;;7.88;100.00
27840;BME280;15207;42.182;24.308;2024-03-02T06:47:27;98808.69;;;7.74;100.00
27840;BME280;15207;42.182;24.308;2024-03-02T06:49:53;98805.53;;;8.04;100.00
27840;BME280;15207;42.182;24.308;2024-03-02T06:52:19;98810.41;;;8.11;100.00
27840;BME280;15207;42.182;24.308;2024-03-02T06:54:45;98808.22;;;8.27;100.00
27840;BME280;15207;42.182;24.308;2024-03-02T06:57:11;98818.94;;;8.50;100.00
27840;BME280;15207;42.182;24.308;2024-03-02T06:59:37;98813.91;;;8.58;100.00
27840;BME280;15207;42.182;24.308;2024-03-02T07:02:02;98827.41;;;8.32;100.00
27840;BME280;15207;42.182;24.308;2024-03-02T07:04:28;98823.72;;;8.11;100.00
27840;BME280;15207;42.182;24.308;2024-03-02T07:06:54;98820.19;;;8.10;100.00
27840;BME280;15207;42.182;24.308;2024-03-02T07:09:20;98826.47;;;7.98;100.00
27840;BME280;15207;42.182;24.308;2024-03-02T07:11:48;98823.00;;;8.09;100.00
27840;BME280;15207;42.182;24.308;2024-03-02T07:14:13;98823.94;;;8.07;100.00
27840;BME280;15207;42.182;24.308;2024-03-02T07:16:39;98813.16;;;8.09;100.00
27840;BME280;15207;42.182;24.308;2024-03-02T07:19:05;98820.59;;;8.17;100.00
27840;BME280;15207;42.182;24.308;2024-03-02T07:21:31;98822.66;;;8.25;100.00
27840;BME280;15207;42.182;24.308;2024-03-02T07:23:58;98822.44;;;8.28;100.00
27840;BME280;15207;42.182;24.308;2024-03-02T07:26:24;98832.41;;;8.37;100.00
27840;BME280;15207;42.182;24.308;2024-03-02T07:28:50;98825.97;;;8.40;100.00
27840;BME280;15207;42.182;24.308;2024-03-02T07:31:16;98827.06;;;8.37;100.00
27840;BME280;15207;42.182;24.308;2024-03-02T07:33:44;98834.59;;;8.43;100.00
27840;BME280;15207;42.182;24.308;2024-03-02T07:36:09;98835.66;;;8.41;100.00
27840;BME280;15207;42.182;24.308;2024-03-02T07:38:35;98831.53;;;8.37;100.00
27840;BME280;15207;42.182;24.308;2024-03-02T07:41:00;98836.38;;;8.43;100.00
27840;BME280;15207;42.182;24.308;2024-03-02T07:43:26;98834.81;;;8.40;100.00
27840;BME280;15207;42.182;24.308;2024-03-02T07:45:52;98838.72;;;8.36;100.00
27840;BME280;15207;42.182;24.308;2024-03-02T07:48:18;98844.88;;;8.25;100.00
27840;BME280;15207;42.182;24.308;2024-03-02T07:50:43;98842.22;;;8.37;100.00
27840;BME280;15207;42.182;24.308;2024-03-02T07:53:08;98838.72;;;8.47;100.00
27840;BME280;15207;42.182;24.308;2024-03-02T07:55:34;98843.81;;;8.51;100.00
27840;BME280;15207;42.182;24.308;2024-03-02T07:58:00;98839.81;;;8.33;100.00
27840;BME280;15207;42.182;24.308;2024-03-02T08:00:26;98841.19;;;8.62;100.00
27840;BME280;15207;42.182;24.308;2024-03-02T08:02:52;98844.22;;;8.57;100.00
27840;BME280;15207;42.182;24.308;2024-03-02T08:05:18;98840.22;;;8.63;100.00
27840;BME280;15207;42.182;24.308;2024-03-02T08:07:46;98844.78;;;8.50;100.00
27840;BME280;15207;42.182;24.308;2024-03-02T08:10:12;98844.06;;;8.47;100.00
27840;BME280;15207;42.182;24.308;2024-03-02T08:12:38;98851.91;;;8.38;100.00
27840;BME280;15207;42.182;24.308;2024-03-02T08:15:04;98849.59;;;8.33;100.00
27840;BME280;15207;42.182;24.308;2024-03-02T08:17:30;98849.91;;;8.64;100.00
27840;BME280;15207;42.182;24.308;2024-03-02T08:19:55;98858.03;;;8.63;100.00
27840;BME280;15207;42.182;24.308;2024-03-02T08:22:22;98852.59;;;8.64;100.00
27840;BME280;15207;42.182;24.308;2024-03-02T08:24:47;98863.88;;;8.56;100.00
27840;BME280;15207;42.182;24.308;2024-03-02T08:27:13;98859.41;;;8.57;100.00
27840;BME280;15207;42.182;24.308;2024-03-02T08:29:38;98854.53;;;8.73;100.00
27840;BME280;15207;42.182;24.308;2024-03-02T08:32:05;98864.34;;;8.73;100.00
27840;BME280;15207;42.182;24.308;2024-03-02T08:34:30;98863.41;;;8.85;100.00
27840;BME280;15207;42.182;24.308;2024-03-02T08:36:56;98864.13;;;8.88;100.00
27840;BME280;15207;42.182;24.308;2024-03-02T08:39:21;98865.34;;;9.06;100.00
27840;BME280;15207;42.182;24.308;2024-03-02T08:41:47;98867.16;;;8.94;100.00
27840;BME280;15207;42.182;24.308;2024-03-02T08:44:13;98864.25;;;8.97;100.00
27840;BME280;15207;42.182;24.308;2024-03-02T08:46:40;98868.38;;;8.90;100.00
27840;BME280;15207;42.182;24.308;2024-03-02T08:49:06;98870.31;;;8.88;100.00
27840;BME280;15207;42.182;24.308;2024-03-02T08:51:32;98871.41;;;8.97;100.00
27840;BME280;15207;42.182;24.308;2024-03-02T08:53:57;98871.19;;;8.89;100.00
27840;BME280;15207;42.182;24.308;2024-03-02T08:56:23;98874.81;;;8.99;100.00
27840;BME280;15207;42.182;24.308;2024-03-02T08:58:50;98870.31;;;8.99;100.00
27840;BME280;15207;42.182;24.308;2024-03-02T09:01:16;98871.28;;;8.76;100.00
27840;BME280;15207;42.182;24.308;2024-03-02T09:03:42;98874.22;;;8.72;100.00
27840;BME280;15207;42.182;24.308;2024-03-02T09:06:11;98864.25;;;8.75;100.00
27840;BME280;15207;42.182;24.308;2024-03-02T09:08:36;98866.31;;;8.82;100.00
27840;BME280;15207;42.182;24.308;2024-03-02T09:11:06;98873.88;;;8.89;100.00
27840;BME280;15207;42.182;24.308;2024-03-02T09:13:32;98867.16;;;8.94;100.00
27840;BME280;15207;42.182;24.308;2024-03-02T09:15:58;98871.53;;;9.07;100.00
27840;BME280;15207;42.182;24.308;2024-03-02T09:18:23;98864.97;;;8.99;100.00
27840;BME280;15207;42.182;24.308;2024-03-02T09:20:49;98867.03;;;9.07;100.00
27840;BME280;15207;42.182;24.308;2024-03-02T09:23:14;98874.56;;;8.91;100.00
27840;BME280;15207;42.182;24.308;2024-03-02T09:25:40;98861.47;;;8.99;100.00
27840;BME280;15207;42.182;24.308;2024-03-02T09:28:05;98858.25;;;9.28;100.00
27840;BME280;15207;42.182;24.308;2024-03-02T09:30:32;98845.16;;;9.25;100.00
27840;BME280;15207;42.182;24.308;2024-03-02T09:32:57;98854.25;;;9.34;100.00
27840;BME280;15207;42.182;24.308;2024-03-02T09:35:22;98853.91;;;9.27;100.00
27840;BME280;15207;42.182;24.308;2024-03-02T09:37:48;98846.94;;;9.36;100.00
27840;BME280;15207;42.182;24.308;2024-03-02T09:40:13;98839.16;;;9.44;100.00
27840;BME280;15207;42.182;24.308;2024-03-02T09:42:39;98842.78;;;9.55;100.00
27840;BME280;15207;42.182;24.308;2024-03-02T09:45:05;98838.47;;;9.75;100.00
27840;BME280;15207;42.182;24.308;2024-03-02T09:47:31;98832.03;;;9.77;100.00
27840;BME280;15207;42.182;24.308;2024-03-02T09:49:56;98823.31;;;9.64;100.00
27840;BME280;15207;42.182;24.308;2024-03-02T09:52:25;98826.84;;;9.86;100.00
27840;BME280;15207;42.182;24.308;2024-03-02T09:54:50;98826.44;;;10.02;100.00
27840;BME280;15207;42.182;24.308;2024-03-02T09:57:16;98828.84;;;10.26;100.00
27840;BME280;15207;42.182;24.308;2024-03-02T09:59:42;98845.53;;;10.18;100.00
27840;BME280;15207;42.182;24.308;2024-03-02T10:02:07;98859.47;;;10.34;100.00
27840;BME280;15207;42.182;24.308;2024-03-02T10:04:33;98854.88;;;10.24;100.00
27840;BME280;15207;42.182;24.308;2024-03-02T10:07:10;98849.00;;;10.30;100.00
27840;BME280;15207;42.182;24.308;2024-03-02T10:09:36;98845.63;;;10.28;100.00
27840;BME280;15207;42.182;24.308;2024-03-02T10:12:06;98841.63;;;10.23;100.00
27840;BME280;15207;42.182;24.308;2024-03-02T10:14:32;98852.78;;;10.28;100.00
27840;BME280;15207;42.182;24.308;2024-03-02T10:17:08;98849.16;;;10.08;100.00
27840;BME280;15207;42.182;24.308;2024-03-02T10:19:34;98839.41;;;10.28;100.00
27840;BME280;15207;42.182;24.308;2024-03-02T10:22:05;98844.72;;;10.39;100.00
27840;BME280;15207;42.182;24.308;2024-03-02T10:24:44;98851.56;;;10.32;100.00
27840;BME280;15207;42.182;24.308;2024-03-02T10:27:15;98845.03;;;10.25;100.00
27840;BME280;15207;42.182;24.308;2024-03-02T10:29:41;98835.13;;;10.15;100.00
27840;BME280;15207;42.182;24.308;2024-03-02T10:32:10;98830.81;;;10.24;100.00
27840;BME280;15207;42.182;24.308;2024-03-02T10:34:43;98837.59;;;10.28;100.00
27840;BME280;15207;42.182;24.308;2024-03-02T10:37:11;98825.66;;;10.32;100.00
27840;BME280;15207;42.182;24.308;2024-03-02T10:39:37;98826.91;;;10.50;100.00
27840;BME280;15207;42.182;24.308;2024-03-02T10:42:05;98819.19;;;10.35;100.00
27840;BME280;15207;42.182;24.308;2024-03-02T10:44:32;98810.50;;;10.43;100.00
27840;BME280;15207;42.182;24.308;2024-03-02T10:47:04;98815.75;;;10.44;100.00
27840;BME280;15207;42.182;24.308;2024-03-02T10:49:31;98820.56;;;10.51;100.00
27840;BME280;15207;42.182;24.308;2024-03-02T10:52:00;98821.53;;;10.28;100.00
27840;BME280;15207;42.182;24.308;2024-03-02T10:54:26;98815.31;;;10.28;100.00
27840;BME280;15207;42.182;24.308;2024-03-02T10:56:53;98824.09;;;10.09;100.00
27840;BME280;15207;42.182;24.308;2024-03-02T11:01:55;98820.56;;;10.08;100.00
27840;BME280;15207;42.182;24.308;2024-03-02T11:04:20;98816.88;;;10.30;100.00
27840;BME280;15207;42.182;24.308;2024-03-02T11:06:48;98818.13;;;10.26;100.00
27840;BME280;15207;42.182;24.308;2024-03-02T11:09:18;98807.94;;;10.41;100.00
27840;BME280;15207;42.182;24.308;2024-03-02T11:11:45;98810.50;;;10.43;100.00
27840;BME280;15207;42.182;24.308;2024-03-02T11:14:16;98808.44;;;10.47;100.00
27840;BME280;15207;42.182;24.308;2024-03-02T11:16:42;98809.88;;;10.51;100.00
27840;BME280;15207;42.182;24.308;2024-03-02T11:19:12;98809.56;;;10.54;100.00
27840;BME280;15207;42.182;24.308;2024-03-02T11:21:38;98809.63;;;10.42;100.00
27840;BME280;15207;42.182;24.308;2024-03-02T11:26:48;98806.00;;;10.43;100.00
27840;BME280;15207;42.182;24.308;2024-03-02T11:32:17;98803.13;;;10.35;100.00
27840;BME280;15207;42.182;24.308;2024-03-02T11:34:45;98800.38;;;10.25;100.00
27840;BME280;15207;42.182;24.308;2024-03-02T11:37:12;98805.69;;;10.37;100.00
27840;BME280;15207;42.182;24.308;2024-03-02T11:39:39;98798.44;;;10.27;100.00
27840;BME280;15207;42.182;24.308;2024-03-02T11:42:07;98795.16;;;10.45;100.00
27840;BME280;15207;42.182;24.308;2024-03-02T11:44:37;98799.03;;;10.52;100.00
27840;BME280;15207;42.182;24.308;2024-03-02T11:47:08;98794.06;;;10.48;100.00
27840;BME280;15207;42.182;24.308;2024-03-02T11:52:10;98803.34;;;10.22;100.00
27840;BME280;15207;42.182;24.308;2024-03-02T11:54:36;98797.81;;;10.24;100.00
27840;BME280;15207;42.182;24.308;2024-03-02T11:57:05;98794.31;;;10.23;100.00
27840;BME280;15207;42.182;24.308;2024-03-02T11:59:31;98800.06;;;10.18;100.00
27840;BME280;15207;42.182;24.308;2024-03-02T12:01:58;98798.69;;;10.24;100.00
27840;BME280;15207;42.182;24.308;2024-03-02T12:04:23;98790.66;;;10.24;100.00
27840;BME280;15207;42.182;24.308;2024-03-02T12:06:59;98794.56;;;10.20;100.00
27840;BME280;15207;42.182;24.308;2024-03-02T12:09:27;98793.34;;;10.03;100.00
27840;BME280;15207;42.182;24.308;2024-03-02T12:12:21;98784.16;;;10.17;100.00
27840;BME280;15207;42.182;24.308;2024-03-02T12:14:51;98785.75;;;10.08;100.00
27840;BME280;15207;42.182;24.308;2024-03-02T12:17:21;98791.31;;;9.95;100.00
27840;BME280;15207;42.182;24.308;2024-03-02T12:19:47;98787.63;;;10.08;100.00
27840;BME280;15207;42.182;24.308;2024-03-02T12:22:13;98791.44;;;10.15;100.00
27840;BME280;15207;42.182;24.308;2024-03-02T12:24:38;98787.84;;;9.83;100.00
27840;BME280;15207;42.182;24.308;2024-03-02T12:27:05;98785.56;;;9.78;100.00
27840;BME280;15207;42.182;24.308;2024-03-02T12:29:32;98783.09;;;10.08;100.00
27840;BME280;15207;42.182;24.308;2024-03-02T12:31:58;98776.25;;;10.15;100.00
27840;BME280;15207;42.182;24.308;2024-03-02T12:34:24;98781.19;;;10.20;100.00
27840;BME280;15207;42.182;24.308;2024-03-02T12:36:51;98772.25;;;10.31;100.00
27840;BME280;15207;42.182;24.308;2024-03-02T12:39:21;98770.28;;;10.33;100.00
27840;BME280;15207;42.182;24.308;2024-03-02T12:41:49;98773.75;;;10.45;100.00
27840;BME280;15207;42.182;24.308;2024-03-02T12:44:19;98775.31;;;10.48;100.00
27840;BME280;15207;42.182;24.308;2024-03-02T12:46:45;98773.63;;;10.47;100.00
27840;BME280;15207;42.182;24.308;2024-03-02T12:49:12;98776.88;;;10.50;100.00
27840;BME280;15207;42.182;24.308;2024-03-02T12:51:39;98766.81;;;10.42;100.00
27840;BME280;15207;42.182;24.308;2024-03-02T12:54:06;98766.44;;;10.47;100.00
27840;BME280;15207;42.182;24.308;2024-03-02T12:56:32;98761.06;;;10.78;100.00
27840;BME280;15207;42.182;24.308;2024-03-02T12:58:58;98766.53;;;10.67;100.00
27840;BME280;15207;42.182;24.308;2024-03-02T13:01:24;98769.66;;;10.72;100.00